地図

経路データ

SID SEASON NUMBER BASIN SUBBASIN NAME ISO_TIME NATURE LAT LON WMO_WIND WMO_PRES WMO_AGENCY TRACK_TYPE DIST2LAND LANDFALL IFLAG USA_AGENCY USA_ATCF_ID USA_LAT USA_LON USA_RECORD USA_STATUS USA_WIND USA_PRES USA_SSHS USA_R34_NE USA_R34_SE USA_R34_SW USA_R34_NW USA_R50_NE USA_R50_SE USA_R50_SW USA_R50_NW USA_R64_NE USA_R64_SE USA_R64_SW USA_R64_NW USA_POCI USA_ROCI USA_RMW USA_EYE TOKYO_LAT TOKYO_LON TOKYO_GRADE TOKYO_WIND TOKYO_PRES TOKYO_R50_DIR TOKYO_R50_LONG TOKYO_R50_SHORT TOKYO_R30_DIR TOKYO_R30_LONG TOKYO_R30_SHORT TOKYO_LAND CMA_LAT CMA_LON CMA_CAT CMA_WIND CMA_PRES HKO_LAT HKO_LON HKO_CAT HKO_WIND HKO_PRES NEWDELHI_LAT NEWDELHI_LON NEWDELHI_GRADE NEWDELHI_WIND NEWDELHI_PRES NEWDELHI_CI NEWDELHI_DP NEWDELHI_POCI REUNION_LAT REUNION_LON REUNION_TYPE REUNION_WIND REUNION_PRES REUNION_TNUM REUNION_CI REUNION_RMW REUNION_R34_NE REUNION_R34_SE REUNION_R34_SW REUNION_R34_NW REUNION_R50_NE REUNION_R50_SE REUNION_R50_SW REUNION_R50_NW REUNION_R64_NE REUNION_R64_SE REUNION_R64_SW REUNION_R64_NW BOM_LAT BOM_LON BOM_TYPE BOM_WIND BOM_PRES BOM_TNUM BOM_CI BOM_RMW BOM_R34_NE BOM_R34_SE BOM_R34_SW BOM_R34_NW BOM_R50_NE BOM_R50_SE BOM_R50_SW BOM_R50_NW BOM_R64_NE BOM_R64_SE BOM_R64_SW BOM_R64_NW BOM_ROCI BOM_POCI BOM_EYE BOM_POS_METHOD BOM_PRES_METHOD NADI_LAT NADI_LON NADI_CAT NADI_WIND NADI_PRES WELLINGTON_LAT WELLINGTON_LON WELLINGTON_WIND WELLINGTON_PRES DS824_LAT DS824_LON DS824_STAGE DS824_WIND DS824_PRES TD9636_LAT TD9636_LON TD9636_STAGE TD9636_WIND TD9636_PRES TD9635_LAT TD9635_LON TD9635_WIND TD9635_PRES TD9635_ROCI NEUMANN_LAT NEUMANN_LON NEUMANN_CLASS NEUMANN_WIND NEUMANN_PRES MLC_LAT MLC_LON MLC_CLASS MLC_WIND MLC_PRES USA_GUST BOM_GUST BOM_GUST_PER REUNION_GUST REUNION_GUST_PER USA_SEAHGT USA_SEARAD_NE USA_SEARAD_SE USA_SEARAD_SW USA_SEARAD_NW STORM_SPEED STORM_DIR
2022027S16084 2022 5 SI MM BATSIRAI 2022-01-27 00:00:00 NR -16.4000 83.7000 PROVISIONAL 2341 2341 O_____________ tcvitals SI082022 -16.4000 83.7000 35 1001 0 80 70 60 25 1004 130 20 19 260
2022027S16084 2022 5 SI MM BATSIRAI 2022-01-27 03:00:00 NR -16.5706 82.7191 PROVISIONAL 2435 2435 P_____________ SI082022 -16.5706 82.7191 37 1000 0 87 70 50 1004 130 17 20 255
2022027S16084 2022 5 SI MM BATSIRAI 2022-01-27 06:00:00 NR -16.9000 81.7000 PROVISIONAL 2538 2429 O_____________ tcvitals SI082022 -16.9000 81.7000 39 1000 0 95 70 40 1005 130 14 22 246
2022027S16084 2022 5 SI MM BATSIRAI 2022-01-27 09:00:00 NR -17.4650 80.6289 PROVISIONAL 2417 2313 P_____________ SI082022 -17.4650 80.6289 64 985 1 82 85 52 1005 130 10 23 241
2022027S16084 2022 5 SI MM BATSIRAI 2022-01-27 12:00:00 NR -18.0000 79.6000 PROVISIONAL 2302 2215 O_____________ tcvitals SI082022 -18.0000 79.6000 89 970 2 70 100 65 60 1005 130 6 20 248
2022027S16084 2022 5 SI MM BATSIRAI 2022-01-27 15:00:00 NR -18.2091 78.7263 PROVISIONAL 2205 2119 P_____________ SI082022 -18.2091 78.7263 74 980 1 70 87 62 57 1005 130 8 16 259
2022027S16084 2022 5 SI MM BATSIRAI 2022-01-27 18:00:00 NR -18.3000 77.9000 PROVISIONAL 2119 2022 O_____________ tcvitals SI082022 -18.3000 77.9000 60 990 0 70 75 60 55 1005 130 10 17 260
2022027S16084 2022 5 SI MM BATSIRAI 2022-01-27 21:00:00 NR -18.4874 76.9930 PROVISIONAL 2022 1927 P_____________ SI082022 -18.4874 76.9930 55 992 0 60 67 62 60 1004 125 10 17 260
2022027S16084 2022 5 SI MM BATSIRAI 2022-01-28 00:00:00 NR -18.6000 76.1000 PROVISIONAL 1927 1845 O_____________ tcvitals SI082022 -18.6000 76.1000 51 995 0 50 60 65 65 1004 120 10 16 269
2022027S16084 2022 5 SI MM BATSIRAI 2022-01-28 03:00:00 NR -18.5298 75.2544 PROVISIONAL 1845 1764 P_____________ SI082022 -18.5298 75.2544 48 996 0 45 60 62 52 1004 120 12 15 278
2022027S16084 2022 5 SI MM BATSIRAI 2022-01-28 06:00:00 NR -18.4000 74.5000 PROVISIONAL 1764 1703 O_____________ tcvitals SI082022 -18.4000 74.5000 45 997 0 40 60 60 40 1004 120 14 14 278
2022027S16084 2022 5 SI MM BATSIRAI 2022-01-28 09:00:00 NR -18.3347 73.8476 PROVISIONAL 1693 1641 P_____________ SI082022 -18.3347 73.8476 45 997 0 42 62 62 42 1004 120 17 11 275
2022027S16084 2022 5 SI MM BATSIRAI 2022-01-28 12:00:00 NR -18.3000 73.3000 PROVISIONAL 1641 1599 O_____________ tcvitals SI082022 -18.3000 73.3000 45 997 0 45 65 65 45 1005 120 20 9 272
2022027S16084 2022 5 SI MM BATSIRAI 2022-01-28 15:00:00 NR -18.2995 72.8501 PROVISIONAL 1599 1547 P_____________ SI082022 -18.2995 72.8501 45 997 0 30 50 55 30 1005 125 20 9 270
2022027S16084 2022 5 SI MM BATSIRAI 2022-01-28 18:00:00 NR -18.3000 72.4000 PROVISIONAL 1547 1485 O_____________ tcvitals SI082022 -18.3000 72.4000 45 998 0 15 35 45 15 1006 130 20 10 272
2022027S16084 2022 5 SI MM BATSIRAI 2022-01-28 21:00:00 NR -18.2578 71.7849 PROVISIONAL 1485 1425 P_____________ SI082022 -18.2578 71.7849 49 995 0 27 52 40 25 1005 107 12 11 275
2022027S16084 2022 5 SI MM BATSIRAI 2022-01-29 00:00:00 NR -18.2000 71.2000 PROVISIONAL 1425 1384 O_____________ tcvitals SI082022 -18.2000 71.2000 54 992 0 40 70 35 35 1005 85 5 9 277
2022027S16084 2022 5 SI MM BATSIRAI 2022-01-29 03:00:00 NR -18.1497 70.8051 PROVISIONAL 1386 1355 P_____________ SI082022 -18.1497 70.8051 59 990 0 42 72 37 35 1005 85 5 7 279
2022027S16084 2022 5 SI MM BATSIRAI 2022-01-29 06:00:00 NR -18.1000 70.5000 PROVISIONAL 1355 1324 O_____________ tcvitals SI082022 -18.1000 70.5000 64 988 1 45 75 40 35 1005 85 5 6 279
2022027S16084 2022 5 SI MM BATSIRAI 2022-01-29 09:00:00 NR -18.0573 70.2076 PROVISIONAL 1324 1296 P_____________ SI082022 -18.0573 70.2076 67 986 1 40 57 42 32 1005 87 5 6 280
2022027S16084 2022 5 SI MM BATSIRAI 2022-01-29 12:00:00 NR -18.0000 69.9000 PROVISIONAL 1296 1258 O_____________ tcvitals SI082022 -18.0000 69.9000 70 985 1 35 40 45 30 1005 90 5 7 283
2022027S16084 2022 5 SI MM BATSIRAI 2022-01-29 15:00:00 NR -17.9075 69.5225 PROVISIONAL 1258 1219 P_____________ SI082022 -17.9075 69.5225 72 982 1 25 42 47 35 1005 87 5 8 285
2022027S16084 2022 5 SI MM BATSIRAI 2022-01-29 18:00:00 NR -17.8000 69.1000 PROVISIONAL 1219 1182 O_____________ tcvitals SI082022 -17.8000 69.1000 74 979 1 15 45 50 40 1005 85 5 8 283
2022027S16084 2022 5 SI MM BATSIRAI 2022-01-29 21:00:00 NR -17.7223 68.6803 PROVISIONAL 1182 1134 P_____________ SI082022 -17.7223 68.6803 77 975 1 25 57 60 57 1003 105 5 9 283
2022027S16084 2022 5 SI MM BATSIRAI 2022-01-30 00:00:00 NR -17.6000 68.2000 PROVISIONAL 1134 1080 O_____________ tcvitals SI082022 -17.6000 68.2000 80 972 1 35 70 70 75 1002 126 5 11 289
2022027S16084 2022 5 SI MM BATSIRAI 2022-01-30 03:00:00 NR -17.3577 67.5997 PROVISIONAL 1080 1032 P_____________ SI082022 -17.3577 67.5997 82 970 1 50 80 80 72 1002 126 5 13 294
2022027S16084 2022 5 SI MM BATSIRAI 2022-01-30 06:00:00 NR -17.1000 67.0000 PROVISIONAL 1032 997 O_____________ tcvitals SI082022 -17.1000 67.0000 84 968 2 65 90 90 70 1002 126 5 11 292
2022027S16084 2022 5 SI MM BATSIRAI 2022-01-30 09:00:00 NR -16.9422 66.5353 PROVISIONAL 992 958 P_____________ SI082022 -16.9422 66.5353 88 966 2 55 72 75 60 1002 153 5 9 289
2022027S16084 2022 5 SI MM BATSIRAI 2022-01-30 12:00:00 NR -16.8000 66.1000 PROVISIONAL 958 920 O_____________ tcvitals SI082022 -16.8000 66.1000 93 965 2 45 55 60 50 1002 180 5 10 292
2022027S16084 2022 5 SI MM BATSIRAI 2022-01-30 15:00:00 NR -16.5776 65.5773 PROVISIONAL 920 884 P_____________ SI082022 -16.5776 65.5773 96 961 3 55 62 67 60 1002 195 7 10 293
2022027S16084 2022 5 SI MM BATSIRAI 2022-01-30 18:00:00 NR -16.4000 65.1000 PROVISIONAL 884 856 O_____________ tcvitals SI082022 -16.4000 65.1000 99 957 3 65 70 75 70 1002 210 10 8 282
2022027S16084 2022 5 SI MM BATSIRAI 2022-01-30 21:00:00 NR -16.4221 64.8081 PROVISIONAL 856 828 P_____________ SI082022 -16.4221 64.8081 96 959 3 72 77 82 77 1003 215 12 6 270
2022027S16084 2022 5 SI MM BATSIRAI 2022-01-31 00:00:00 NR -16.4000 64.5000 PROVISIONAL 828 802 O_____________ tcvitals SI082022 -16.4000 64.5000 93 962 2 80 85 90 85 1004 220 14 9 294
2022027S16084 2022 5 SI MM BATSIRAI 2022-01-31 03:00:00 NR -16.0505 63.9192 PROVISIONAL 793 778 P_____________ SI082022 -16.0505 63.9192 91 963 2 87 105 112 102 1004 220 14 13 304
2022027S16084 2022 5 SI MM BATSIRAI 2022-01-31 06:00:00 NR -15.7000 63.4000 PROVISIONAL 778 770 O_____________ tcvitals SI082022 -15.7000 63.4000 89 965 2 95 126 135 120 1004 220 14 8 303
2022027S16084 2022 5 SI MM BATSIRAI 2022-01-31 09:00:00 NR -15.6322 63.2628 PROVISIONAL 777 762 P_____________ SI082022 -15.6322 63.2628 86 966 2 67 90 120 90 1004 215 12 2 270
2022027S16084 2022 5 SI MM BATSIRAI 2022-01-31 12:00:00 NR -15.7000 63.2000 PROVISIONAL 762 730 O_____________ tcvitals SI082022 -15.7000 63.2000 84 968 2 40 55 105 60 1004 210 10 4 249
2022027S16084 2022 5 SI MM BATSIRAI 2022-01-31 15:00:00 NR -15.7626 62.9075 PROVISIONAL 730 699 P_____________ SI082022 -15.7626 62.9075 82 970 1 65 82 112 75 1004 230 10 6 251
2022027S16084 2022 5 SI MM BATSIRAI 2022-01-31 18:00:00 NR -15.9000 62.6000 PROVISIONAL 699 676 O_____________ tcvitals SI082022 -15.9000 62.6000 80 972 1 90 110 120 90 1004 250 10 5 228
2022027S16084 2022 5 SI MM BATSIRAI 2022-01-31 21:00:00 NR -16.1271 62.4947 PROVISIONAL 676 638 P_____________ SI082022 -16.1271 62.4947 77 973 1 90 97 115 82 1003 262 10 6 210
2022027S16084 2022 5 SI MM BATSIRAI 2022-02-01 00:00:00 NR -16.4000 62.3000 PROVISIONAL 638 576 O_____________ tcvitals SI082022 -16.4000 62.3000 74 974 1 90 85 110 75 1003 275 10 9 232
2022027S16084 2022 5 SI MM BATSIRAI 2022-02-01 03:00:00 NR -16.6653 61.7677 PROVISIONAL 576 506 P_____________ SI082022 -16.6653 61.7677 77 972 1 102 100 118 87 1003 275 15 13 246
2022027S16084 2022 5 SI MM BATSIRAI 2022-02-01 06:00:00 NR -16.9000 61.1000 PROVISIONAL 506 455 O_____________ tcvitals SI082022 -16.9000 61.1000 80 971 1 115 115 126 100 1003 275 20 13 253
2022027S16084 2022 5 SI MM BATSIRAI 2022-02-01 09:00:00 NR -17.0576 60.4623 PROVISIONAL 446 398 P_____________ SI082022 -17.0576 60.4623 84 967 2 120 117 123 95 1003 275 17 12 255
2022027S16084 2022 5 SI MM BATSIRAI 2022-02-01 12:00:00 NR -17.2000 59.9000 PROVISIONAL 398 356 O_____________ tcvitals SI082022 -17.2000 59.9000 89 964 2 126 120 120 90 1003 275 14 10 250
2022027S16084 2022 5 SI MM BATSIRAI 2022-02-01 15:00:00 NR -17.3846 59.5273 PROVISIONAL 356 321 P_____________ SI082022 -17.3846 59.5273 91 964 2 118 125 110 85 1005 280 14 8 239
2022027S16084 2022 5 SI MM BATSIRAI 2022-02-01 18:00:00 NR -17.6000 59.2000 PROVISIONAL 321 282 O_____________ tcvitals SI082022 -17.6000 59.2000 93 965 2 110 130 100 80 1007 285 14 9 238
2022027S16084 2022 5 SI MM BATSIRAI 2022-02-01 21:00:00 NR -17.8501 58.7501 PROVISIONAL 271 232 P_____________ SI082022 -17.8501 58.7501 106 952 3 125 150 130 100 1006 292 13 10 240
2022027S16084 2022 5 SI MM BATSIRAI 2022-02-02 00:00:00 NR -18.1000 58.3000 PROVISIONAL 232 203 O_____________ tcvitals SI082022 -18.1000 58.3000 119 940 4 140 170 160 120 1006 300 12 9 239
2022027S16084 2022 5 SI MM BATSIRAI 2022-02-02 03:00:00 NR -18.3073 57.9498 PROVISIONAL 202 178 P_____________ SI082022 -18.3073 57.9498 119 939 4 137 165 157 125 1005 270 8 8 239
2022027S16084 2022 5 SI MM BATSIRAI 2022-02-02 06:00:00 NR -18.5000 57.6000 PROVISIONAL 178 158 O_____________ tcvitals SI082022 -18.5000 57.6000 119 938 4 135 160 155 130 1005 240 5 9 241
2022027S16084 2022 5 SI MM BATSIRAI 2022-02-02 09:00:00 NR -18.7301 57.1427 PROVISIONAL 162 148 P_____________ SI082022 -18.7301 57.1427 121 935 4 145 160 170 137 1004 240 5 9 245
2022027S16084 2022 5 SI MM BATSIRAI 2022-02-02 12:00:00 NR -18.9000 56.7000 PROVISIONAL 158 158 O_____________ tcvitals SI082022 -18.9000 56.7000 124 932 4 155 160 185 145 1004 240 5 8 256
2022027S16084 2022 5 SI MM BATSIRAI 2022-02-02 15:00:00 NR -18.9149 56.3622 PROVISIONAL 176 176 P_____________ SI082022 -18.9149 56.3622 121 934 4 147 165 182 140 1004 240 8 6 270
2022027S16084 2022 5 SI MM BATSIRAI 2022-02-02 18:00:00 NR -18.9000 56.1000 PROVISIONAL 198 198 O_____________ tcvitals SI082022 -18.9000 56.1000 119 936 4 140 170 180 135 1004 240 12 5 258
2022027S16084 2022 5 SI MM BATSIRAI 2022-02-02 21:00:00 NR -19.0074 55.8851 PROVISIONAL 207 207 P_____________ SI082022 -19.0074 55.8851 117 938 4 137 167 170 132 1004 235 13 4 242
2022027S16084 2022 5 SI MM BATSIRAI 2022-02-03 00:00:00 NR -19.1000 55.7000 PROVISIONAL 212 212 O_____________ tcvitals SI082022 -19.1000 55.7000 115 940 4 135 165 160 130 1004 230 14 4 263
2022027S16084 2022 5 SI MM BATSIRAI 2022-02-03 03:00:00 NR -19.0500 55.4999 PROVISIONAL 223 223 P_____________ SI082022 -19.0500 55.4999 115 940 4 132 160 155 130 1004 230 14 4 285
2022027S16084 2022 5 SI MM BATSIRAI 2022-02-03 06:00:00 NR -19.0000 55.3000 PROVISIONAL 223 213 O_____________ tcvitals SI082022 -19.0000 55.3000 115 940 4 130 155 150 130 1004 230 14 4 266
2022027S16084 2022 5 SI MM BATSIRAI 2022-02-03 09:00:00 NR -19.0775 55.0926 PROVISIONAL 213 203 P_____________ SI082022 -19.0775 55.0926 115 939 4 120 142 150 115 1004 240 14 4 242
2022027S16084 2022 5 SI MM BATSIRAI 2022-02-03 12:00:00 NR -19.2000 54.9000 PROVISIONAL 205 197 O_____________ tcvitals SI082022 -19.2000 54.9000 115 938 4 110 130 150 100 1005 250 14 4 232
2022027S16084 2022 5 SI MM BATSIRAI 2022-02-03 15:00:00 NR -19.3149 54.7725 PROVISIONAL 197 189 P_____________ SI082022 -19.3149 54.7725 110 943 3 122 142 157 122 1005 250 17 3 235
2022027S16084 2022 5 SI MM BATSIRAI 2022-02-03 18:00:00 NR -19.4000 54.6000 PROVISIONAL 193 193 O_____________ tcvitals SI082022 -19.4000 54.6000 105 949 3 135 155 165 145 1005 250 20 5 257
2022027S16084 2022 5 SI MM BATSIRAI 2022-02-03 21:00:00 NR -19.4150 54.2949 PROVISIONAL 207 207 P_____________ SI082022 -19.4150 54.2949 105 949 3 140 175 167 150 1005 250 20 7 270
2022027S16084 2022 5 SI MM BATSIRAI 2022-02-04 00:00:00 NR -19.4000 53.9000 PROVISIONAL 231 231 O_____________ tcvitals SI082022 -19.4000 53.9000 105 950 3 145 195 170 155 1005 250 20 8 271
2022027S16084 2022 5 SI MM BATSIRAI 2022-02-04 03:00:00 NR -19.4002 53.4275 PROVISIONAL 267 267 P_____________ SI082022 -19.4002 53.4275 110 945 3 132 192 165 127 1005 252 20 8 270
2022027S16084 2022 5 SI MM BATSIRAI 2022-02-04 06:00:00 NR -19.4000 53.0000 PROVISIONAL 298 298 O_____________ tcvitals SI082022 -19.4000 53.0000 115 941 4 120 190 160 100 1005 255 20 6 271
2022027S16084 2022 5 SI MM BATSIRAI 2022-02-04 09:00:00 NR -19.3848 52.7699 PROVISIONAL 314 314 P_____________ SI082022 -19.3848 52.7699 115 940 4 123 187 160 102 1005 260 20 4 270
2022027S16084 2022 5 SI MM BATSIRAI 2022-02-04 12:00:00 NR -19.4000 52.6000 PROVISIONAL 331 331 O_____________ tcvitals SI082022 -19.4000 52.6000 115 940 4 126 185 160 105 1005 265 20 4 256
2022027S16084 2022 5 SI MM BATSIRAI 2022-02-04 15:00:00 NR -19.4774 52.3799 PROVISIONAL 342 320 P_____________ SI082022 -19.4774 52.3799 115 940 4 135 187 167 130 1005 242 21 5 247
2022027S16084 2022 5 SI MM BATSIRAI 2022-02-04 18:00:00 NR -19.6000 52.1000 PROVISIONAL 320 283 O_____________ tcvitals SI082022 -19.6000 52.1000 115 940 4 145 190 175 155 1005 220 22 7 247
2022027S16084 2022 5 SI MM BATSIRAI 2022-02-04 21:00:00 NR -19.7425 51.7225 PROVISIONAL 283 251 P_____________ SI082022 -19.7425 51.7225 107 947 3 147 192 170 155 1005 220 19 8 248
2022027S16084 2022 5 SI MM BATSIRAI 2022-02-05 00:00:00 NR -19.9000 51.3000 PROVISIONAL 251 218 O_____________ tcvitals SI082022 -19.9000 51.3000 99 954 3 150 195 165 155 1005 220 17 8 249
2022027S16084 2022 5 SI MM BATSIRAI 2022-02-05 03:00:00 NR -20.0272 50.9221 PROVISIONAL 218 178 P_____________ SI082022 -20.0272 50.9221 99 954 3 155 187 172 147 1005 220 17 8 248
2022027S16084 2022 5 SI MM BATSIRAI 2022-02-05 06:00:00 NR -20.2000 50.5000 PROVISIONAL 178 137 O_____________ tcvitals SI082022 -20.2000 50.5000 99 954 3 160 180 180 140 1005 220 17 10 242
2022027S16084 2022 5 SI MM BATSIRAI 2022-02-05 09:00:00 NR -20.5075 49.9729 PROVISIONAL 137 94 P_____________ SI082022 -20.5075 49.9729 99 953 3 160 187 170 127 1004 220 17 12 240
2022027S16084 2022 5 SI MM BATSIRAI 2022-02-05 12:00:00 NR -20.8000 49.4000 PROVISIONAL 94 51 O_____________ tcvitals SI082022 -20.8000 49.4000 99 953 3 160 195 160 115 1004 220 17 11 248
2022027S16084 2022 5 SI MM BATSIRAI 2022-02-05 15:00:00 NR -20.9221 48.8720 PROVISIONAL 51 0 P_____________ SI082022 -20.9221 48.8720 99 953 3 157 192 157 112 1003 210 11 10 259
2022027S16084 2022 5 SI MM BATSIRAI 2022-02-05 18:00:00 NR -21.0000 48.3000 PROVISIONAL 0 0 O_____________ tcvitals SI082022 -21.0000 48.3000 99 953 3 155 190 155 110 1003 200 5 12 261
2022027S16084 2022 5 SI MM BATSIRAI 2022-02-05 21:00:00 NR -21.1122 47.6444 PROVISIONAL 0 0 P_____________ SI082022 -21.1122 47.6444 79 966 1 160 185 152 110 1002 187 9 13 257
2022027S16084 2022 5 SI MM BATSIRAI 2022-02-06 00:00:00 NR -21.3000 46.9000 PROVISIONAL 0 0 O_____________ tcvitals SI082022 -21.3000 46.9000 60 980 0 165 180 150 110 1001 175 14 16 252
2022027S16084 2022 5 SI MM BATSIRAI 2022-02-06 03:00:00 NR -21.6118 46.0251 PROVISIONAL 0 0 P_____________ SI082022 -21.6118 46.0251 57 981 0 162 182 145 102 1001 175 17 17 246
2022027S16084 2022 5 SI MM BATSIRAI 2022-02-06 06:00:00 NR -22.0000 45.2000 PROVISIONAL 0 0 O_____________ tcvitals SI082022 -22.0000 45.2000 54 983 0 160 185 140 95 1001 175 20 16 238
2022027S16084 2022 5 SI MM BATSIRAI 2022-02-06 09:00:00 NR -22.4236 44.6040 PROVISIONAL 0 0 P_____________ SI082022 -22.4236 44.6040 50 986 0 13 230
2022027S16084 2022 5 SI MM BATSIRAI 2022-02-06 12:00:00 NR -22.8160 44.1376 PROVISIONAL 0 0 I_____________ tcvitals SI082022 -22.8160 44.1376 46 989 0 11 229
2022027S16084 2022 5 SI MM BATSIRAI 2022-02-06 15:00:00 NR -23.1337 43.7216 PROVISIONAL 0 0 P_____________ SI082022 -23.1337 43.7216 42 992 0 9 238
2022027S16084 2022 5 SI MM BATSIRAI 2022-02-06 18:00:00 NR -23.3000 43.3000 PROVISIONAL 30 30 O_____________ tcvitals SI082022 -23.3000 43.3000 39 995 0 120 170 140 75 1005 175 30 9 266
2022027S16084 2022 5 SI MM BATSIRAI 2022-02-06 21:00:00 NR -23.1918 42.7087 PROVISIONAL 84 84 P_____________ SI082022 -23.1918 42.7087 39 995 0 172 155 67 1005 195 37 10 281
2022027S16084 2022 5 SI MM BATSIRAI 2022-02-07 00:00:00 NR -23.1000 42.2000 PROVISIONAL 127 127 O_____________ tcvitals SI082022 -23.1000 42.2000 39 995 0 175 170 60 1006 215 45 7 259
2022027S16084 2022 5 SI MM BATSIRAI 2022-02-07 03:00:00 NR -23.3172 41.9752 PROVISIONAL 153 153 P_____________ SI082022 -23.3172 41.9752 39 994 0 185 162 93 1006 215 45 7 205
2022027S16084 2022 5 SI MM BATSIRAI 2022-02-07 06:00:00 NR -23.7000 41.9000 PROVISIONAL 172 172 O_____________ tcvitals SI082022 -23.7000 41.9000 39 993 0 110 195 155 126 1006 215 45 8 189
2022027S16084 2022 5 SI MM BATSIRAI 2022-02-07 09:00:00 NR -24.1200 41.8349 PROVISIONAL 188 188 P_____________ SI082022 -24.1200 41.8349 39 992 0 107 202 147 133 1006 215 45 9 185
2022027S16084 2022 5 SI MM BATSIRAI 2022-02-07 12:00:00 NR -24.6000 41.8000 PROVISIONAL 200 200 O_____________ tcvitals SI082022 -24.6000 41.8000 39 992 0 105 210 140 140 1006 215 45 10 185
2022027S16084 2022 5 SI MM BATSIRAI 2022-02-07 15:00:00 NR -25.0775 41.7500 PROVISIONAL 218 218 P_____________ SI082022 -25.0775 41.7500 39 990 0 110 220 162 1006 200 45 10 185
2022027S16084 2022 5 SI MM BATSIRAI 2022-02-07 18:00:00 NR -25.6000 41.7000 PROVISIONAL 239 239 O_____________ tcvitals SI082022 -25.6000 41.7000 39 989 0 115 230 185 1006 185 45 12 187
2022027S16084 2022 5 SI MM BATSIRAI 2022-02-07 21:00:00 NR -26.2899 41.5903 PROVISIONAL 280 280 P_____________ SI082022 -26.2899 41.5903 45 988 0 82 200 150 1006 185 57 12 184
2022027S16084 2022 5 SI MM BATSIRAI 2022-02-08 00:00:00 NR -26.8000 41.6000 PROVISIONAL 312 305 O_____________ tcvitals SI082022 -26.8000 41.6000 51 988 0 50 170 115 126 1006 185 70 6 156
2022027S16084 2022 5 SI MM BATSIRAI 2022-02-08 03:00:00 NR -26.8454 41.8705 PROVISIONAL 290 246 P_____________ SI082022 -26.8454 41.8705 45 988 0 125 207 137 118 1006 185 65 7 72
2022027S16084 2022 5 SI MM BATSIRAI 2022-02-08 06:00:00 NR -26.6000 42.3000 PROVISIONAL 246 O_____________ tcvitals SI082022 -26.6000 42.3000 39 989 0 200 245 160 110 1006 185 60 9 57

IBTrACS Databaseについて

本データベースは、米国NOAAが公開する1842年以降の世界の熱帯低気圧のベストトラックデータアーカイブInternational Best Track Archive for Climate Stewardship (IBTrACS)を、ウェブで閲覧しやすい形式に変換したものです。

最終更新日:2022-05-24